createdAt,value
2018-11-02T00:02:12.612Z,100318.28
2018-11-02T00:04:40.621Z,100326.76
2018-11-02T00:07:08.625Z,100322.88
2018-11-02T00:09:36.749Z,100326.76
2018-11-02T00:12:05.035Z,100335.90
2018-11-02T00:14:32.987Z,100327.51
2018-11-02T00:17:01.041Z,100326.84
2018-11-02T00:19:31.452Z,100327.52
2018-11-02T00:22:00.544Z,100329.97
2018-11-02T00:24:28.914Z,100332.02
2018-11-02T00:26:57.453Z,100329.45
2018-11-02T00:29:25.462Z,100331.25
2018-11-02T00:31:53.580Z,100331.48
2018-11-02T00:34:21.518Z,100330.24
2018-11-02T00:36:49.553Z,100334.84
2018-11-02T00:39:17.607Z,100341.25
2018-11-02T00:41:45.610Z,100342.01
2018-11-02T00:44:13.613Z,100341.43
2018-11-02T00:46:41.633Z,100341.63
2018-11-02T00:49:09.683Z,100331.17
2018-11-02T00:51:38.232Z,100341.84
2018-11-02T00:54:06.621Z,100339.38
2018-11-02T00:56:34.696Z,100334.67
2018-11-02T00:59:02.701Z,100336.92
2018-11-02T01:01:30.754Z,100328.35
2018-11-02T01:03:58.723Z,100328.16
2018-11-02T01:06:26.704Z,100334.11
2018-11-02T01:08:54.753Z,100328.91
2018-11-02T01:11:22.755Z,100330.88
2018-11-02T01:13:50.773Z,100332.50
2018-11-02T01:16:18.790Z,100327.52
2018-11-02T01:18:46.793Z,100324.76
2018-11-02T01:21:14.801Z,100323.48
2018-11-02T01:23:42.838Z,100326.66
2018-11-02T01:26:10.889Z,100328.36
2018-11-02T01:28:38.897Z,100332.84
2018-11-02T01:31:06.955Z,100336.59
2018-11-02T01:33:36.985Z,100349.02
2018-11-02T01:36:05.666Z,100355.98
2018-11-02T01:38:33.685Z,100357.48
2018-11-02T01:41:01.721Z,100356.14
2018-11-02T01:43:30.057Z,100361.54
2018-11-02T01:45:58.111Z,100363.36
2018-11-02T01:48:26.097Z,100365.02
2018-11-02T01:50:54.929Z,100369.69
2018-11-02T01:53:22.915Z,100378.47
2018-11-02T01:55:51.168Z,100383.73
2018-11-02T01:58:19.412Z,100384.85
2018-11-02T02:00:47.503Z,100372.69
2018-11-02T02:03:15.544Z,100381.09
2018-11-02T02:05:43.685Z,100381.52
2018-11-02T02:08:11.652Z,100381.61
2018-11-02T02:10:39.653Z,100380.41
2018-11-02T02:13:07.697Z,100390.95
2018-11-02T02:15:35.723Z,100389.31
2018-11-02T02:18:03.773Z,100388.95
2018-11-02T02:20:31.779Z,100391.66
2018-11-02T02:22:59.786Z,100394.14
2018-11-02T02:25:27.806Z,100392.78
2018-11-02T02:27:55.794Z,100391.44
2018-11-02T02:30:23.873Z,100393.73
2018-11-02T02:32:52.024Z,100394.06
2018-11-02T02:35:20.055Z,100386.73
2018-11-02T02:37:48.082Z,100390.81
2018-11-02T02:40:16.115Z,100389.92
2018-11-02T02:42:44.114Z,100398.34
2018-11-02T02:45:12.824Z,100400.54
2018-11-02T02:47:41.189Z,100399.09
2018-11-02T02:50:11.394Z,100403.53
2018-11-02T02:52:39.438Z,100395.61
2018-11-02T02:55:07.736Z,100392.20
2018-11-02T02:57:42.418Z,100377.70
2018-11-02T03:00:12.511Z,100375.56
2018-11-02T03:02:40.661Z,100376.03
2018-11-02T03:05:09.041Z,100386.23
2018-11-02T03:07:37.066Z,100396.64
2018-11-02T03:10:05.326Z,100398.59
2018-11-02T03:12:33.300Z,100402.27
2018-11-02T03:15:01.305Z,100405.38
2018-11-02T03:17:29.375Z,100408.02
2018-11-02T03:19:57.365Z,100408.02
2018-11-02T03:22:25.386Z,100408.67
2018-11-02T03:24:53.394Z,100406.31
2018-11-02T03:27:21.567Z,100407.63
2018-11-02T03:29:49.589Z,100402.47
2018-11-02T03:32:17.637Z,100408.11
2018-11-02T03:34:45.653Z,100421.02
2018-11-02T03:37:13.697Z,100415.09
2018-11-02T03:39:41.778Z,100426.68
2018-11-02T03:42:09.801Z,100433.33
2018-11-02T03:44:37.797Z,100434.66
2018-11-02T03:47:05.900Z,100442.58
2018-11-02T03:49:33.913Z,100436.64
2018-11-02T03:52:01.959Z,100442.19
2018-11-02T03:54:29.984Z,100443.33
2018-11-02T03:56:58.157Z,100442.20
2018-11-02T03:59:26.035Z,100450.59
2018-11-02T04:01:54.106Z,100454.25
2018-11-02T04:04:22.109Z,100459.06
2018-11-02T04:06:50.108Z,100456.34
2018-11-02T04:09:18.251Z,100460.77
2018-11-02T04:11:46.289Z,100471.80
2018-11-02T04:14:14.345Z,100477.23
2018-11-02T04:16:42.390Z,100474.25
2018-11-02T04:19:10.449Z,100482.35
2018-11-02T04:21:41.879Z,100482.44
2018-11-02T04:24:09.931Z,100485.53
2018-11-02T04:26:37.995Z,100494.58
2018-11-02T04:29:06.165Z,100492.77
2018-11-02T04:31:34.285Z,100496.46
2018-11-02T04:34:02.422Z,100489.52
2018-11-02T04:36:30.494Z,100484.41
2018-11-02T04:38:58.514Z,100486.30
2018-11-02T04:41:26.607Z,100481.78
2018-11-02T04:43:54.649Z,100487.63
2018-11-02T04:46:22.610Z,100497.78
2018-11-02T04:48:50.595Z,100497.42
2018-11-02T04:51:18.665Z,100506.46
2018-11-02T04:53:46.682Z,100501.94
2018-11-02T04:56:14.745Z,100506.66
2018-11-02T04:58:42.773Z,100512.02
2018-11-02T05:01:10.842Z,100512.67
2018-11-02T05:03:38.881Z,100514.58
2018-11-02T05:06:06.891Z,100526.91
2018-11-02T05:08:34.921Z,100536.82
2018-11-02T05:11:02.936Z,100535.86
2018-11-02T05:13:30.957Z,100543.59
2018-11-02T05:15:58.996Z,100548.50
2018-11-02T05:18:27.080Z,100552.83
2018-11-02T05:20:55.100Z,100560.38
2018-11-02T05:23:23.205Z,100563.19
2018-11-02T05:25:51.243Z,100563.39
2018-11-02T05:28:19.245Z,100560.95
2018-11-02T05:30:47.243Z,100563.90
2018-11-02T05:33:15.312Z,100561.14
2018-11-02T05:35:43.310Z,100575.27
2018-11-02T05:38:11.321Z,100576.06
2018-11-02T05:40:39.324Z,100583.77
2018-11-02T05:43:07.402Z,100590.95
2018-11-02T05:45:35.430Z,100599.63
2018-11-02T05:48:03.396Z,100598.59
2018-11-02T05:50:31.445Z,100603.20
2018-11-02T05:52:59.664Z,100605.08
2018-11-02T05:55:27.626Z,100610.36
2018-11-02T05:57:55.732Z,100609.24
2018-11-02T06:00:23.760Z,100596.15
2018-11-02T06:02:51.756Z,100624.53
2018-11-02T06:05:19.804Z,100619.61
2018-11-02T06:07:47.937Z,100627.44
2018-11-02T06:10:15.929Z,100633.94
2018-11-02T06:12:43.978Z,100650.83
2018-11-02T06:15:11.961Z,100652.99
2018-11-02T06:17:39.941Z,100652.83
2018-11-02T06:20:08.461Z,100653.67
2018-11-02T06:22:36.454Z,100658.47
2018-11-02T06:25:04.735Z,100661.12
2018-11-02T06:27:32.789Z,100664.88
2018-11-02T06:30:00.803Z,100667.64
2018-11-02T06:32:28.917Z,100669.80
2018-11-02T06:34:56.851Z,100674.52
2018-11-02T06:37:25.045Z,100690.66
2018-11-02T06:39:53.256Z,100689.34
2018-11-02T06:42:21.248Z,100693.75
2018-11-02T06:44:49.361Z,100699.98
2018-11-02T06:47:17.305Z,100699.31
2018-11-02T06:49:45.273Z,100709.20
2018-11-02T06:52:13.275Z,100712.16
2018-11-02T06:54:41.240Z,100720.78
2018-11-02T06:57:09.264Z,100731.16
2018-11-02T06:59:37.531Z,100741.48
2018-11-02T07:02:05.541Z,100733.46
2018-11-02T07:04:33.573Z,100738.27
2018-11-02T07:07:01.647Z,100745.85
2018-11-02T07:09:29.611Z,100751.34
2018-11-02T07:11:57.701Z,100759.63
2018-11-02T07:14:25.750Z,100765.48
2018-11-02T07:16:53.741Z,100765.13
2018-11-02T07:19:21.738Z,100765.55
2018-11-02T07:21:49.862Z,100779.55
2018-11-02T07:24:17.844Z,100787.19
2018-11-02T07:26:45.905Z,100790.88
2018-11-02T07:29:13.885Z,100802.23
2018-11-02T07:31:41.895Z,100802.11
2018-11-02T07:34:09.935Z,100808.64
2018-11-02T07:36:37.869Z,100815.81
2018-11-02T07:39:08.246Z,100812.12
2018-11-02T07:41:36.294Z,100810.04
2018-11-02T07:44:04.424Z,100809.27
2018-11-02T07:46:32.434Z,100822.02
2018-11-02T07:49:00.446Z,100822.36
2018-11-02T07:51:28.461Z,100822.02
2018-11-02T07:53:56.965Z,100837.62
2018-11-02T07:56:25.113Z,100838.66
2018-11-02T07:58:53.137Z,100837.62
2018-11-02T08:01:21.173Z,100851.31
2018-11-02T08:03:49.198Z,100854.51
2018-11-02T08:06:17.165Z,100867.42
2018-11-02T08:08:45.180Z,100861.09
2018-11-02T08:11:13.238Z,100869.43
2018-11-02T08:13:41.196Z,100877.20
2018-11-02T08:16:09.183Z,100872.58
2018-11-02T08:18:37.189Z,100875.89
2018-11-02T08:21:05.216Z,100876.45
2018-11-02T08:23:33.233Z,100880.16
2018-11-02T08:26:01.232Z,100883.56
2018-11-02T08:28:29.273Z,100886.05
2018-11-02T08:30:57.282Z,100885.00
2018-11-02T08:33:25.294Z,100894.47
2018-11-02T08:35:53.304Z,100900.35
2018-11-02T08:38:21.424Z,100896.56
2018-11-02T08:40:49.424Z,100915.90
2018-11-02T08:43:17.427Z,100914.68
2018-11-02T08:45:45.444Z,100926.22
2018-11-02T08:48:13.465Z,100933.12
2018-11-02T08:50:41.485Z,100944.18
2018-11-02T08:53:09.511Z,100943.98
2018-11-02T08:55:37.501Z,100947.33
2018-11-02T08:58:05.643Z,100944.56
2018-11-02T09:00:33.541Z,100949.79
2018-11-02T09:03:01.541Z,100964.25
2018-11-02T09:05:29.573Z,100970.29
2018-11-02T09:07:57.573Z,100972.28
2018-11-02T09:10:25.604Z,100973.88
2018-11-02T09:12:53.592Z,100976.84
2018-11-02T09:15:21.580Z,100986.80
2018-11-02T09:17:49.593Z,100990.55
2018-11-02T09:20:17.614Z,100991.88
2018-11-02T09:22:45.644Z,101001.25
2018-11-02T09:25:13.605Z,101004.33
2018-11-02T09:27:41.647Z,101012.54
2018-11-02T09:30:12.721Z,101015.23
2018-11-02T09:32:40.725Z,101023.00
2018-11-02T09:35:08.761Z,101022.75
2018-11-02T09:37:37.765Z,101026.36
2018-11-02T09:40:06.835Z,101027.86
2018-11-02T09:42:34.901Z,101032.63
2018-11-02T09:45:02.908Z,101032.59
2018-11-02T09:47:30.947Z,101039.94
2018-11-02T09:49:58.981Z,101048.22
2018-11-02T09:52:27.126Z,101047.42
2018-11-02T09:54:55.225Z,101058.97
2018-11-02T09:57:23.232Z,101056.67
2018-11-02T09:59:51.337Z,101063.09
2018-11-02T10:02:19.354Z,101065.53
2018-11-02T10:04:47.368Z,101068.00
2018-11-02T10:07:15.375Z,101082.34
2018-11-02T10:09:43.383Z,101081.03
2018-11-02T10:12:11.417Z,101081.16
2018-11-02T10:14:39.438Z,101088.03
2018-11-02T10:17:07.476Z,101093.41
2018-11-02T10:19:35.511Z,101090.30
2018-11-02T10:22:03.503Z,101101.80
2018-11-02T10:24:31.805Z,101106.12
2018-11-02T10:26:59.810Z,101102.05
2018-11-02T10:29:28.183Z,101115.98
2018-11-02T10:31:56.193Z,101119.09
2018-11-02T10:34:24.188Z,101119.53
2018-11-02T10:36:52.190Z,101125.02
2018-11-02T10:39:20.375Z,101125.13
2018-11-02T10:41:50.261Z,101133.06
2018-11-02T10:44:21.354Z,101137.34
2018-11-02T10:46:49.349Z,101147.94
2018-11-02T10:49:17.409Z,101151.41
2018-11-02T10:51:45.441Z,101165.50
2018-11-02T10:54:13.443Z,101157.95
2018-11-02T10:56:41.530Z,101161.53
2018-11-02T10:59:09.513Z,101165.77
2018-11-02T11:01:43.028Z,101169.77
2018-11-02T11:04:11.072Z,101176.17
2018-11-02T11:06:39.153Z,101172.31
2018-11-02T11:09:09.964Z,101176.90
2018-11-02T11:11:38.098Z,101179.43
2018-11-02T11:14:06.068Z,101183.63
2018-11-02T11:16:34.097Z,101184.47
2018-11-02T11:19:02.097Z,101194.70
2018-11-02T11:21:30.225Z,101199.20
2018-11-02T11:23:58.225Z,101194.62
2018-11-02T11:26:26.305Z,101199.57
2018-11-02T11:28:54.345Z,101198.69
2018-11-02T11:31:22.413Z,101205.66
2018-11-02T11:33:50.420Z,101210.95
2018-11-02T11:36:18.432Z,101208.07
2018-11-02T11:38:46.425Z,101211.50
2018-11-02T11:41:14.429Z,101217.34
2018-11-02T11:43:42.497Z,101222.86
2018-11-02T11:46:10.533Z,101223.06
2018-11-02T11:48:38.583Z,101227.04
2018-11-02T11:51:06.692Z,101234.05
2018-11-02T11:53:34.744Z,101240.20
2018-11-02T11:56:02.730Z,101244.11
2018-11-02T11:58:30.718Z,101249.61
2018-11-02T12:00:58.696Z,101251.41
2018-11-02T12:03:26.758Z,101260.22
2018-11-02T12:05:54.753Z,101262.99
2018-11-02T12:08:22.746Z,101269.50
2018-11-02T12:10:50.825Z,101274.45
2018-11-02T12:13:18.841Z,101269.71
2018-11-02T12:15:46.869Z,101270.84
2018-11-02T12:18:14.845Z,101266.69
2018-11-02T12:20:42.873Z,101268.10
2018-11-02T12:23:10.941Z,101262.99
2018-11-02T12:25:38.936Z,101270.11
2018-11-02T12:28:06.984Z,101273.23
2018-11-02T12:30:34.953Z,101270.22
2018-11-02T12:33:02.983Z,101273.61
2018-11-02T12:35:31.012Z,101269.72
2018-11-02T12:37:59.053Z,101279.06
2018-11-02T12:40:27.074Z,101278.23
2018-11-02T12:42:55.876Z,101281.59
2018-11-02T12:45:24.165Z,101281.58
2018-11-02T12:47:52.223Z,101290.66
2018-11-02T12:50:25.646Z,101293.88
2018-11-02T12:52:54.841Z,101290.39
2018-11-02T12:55:23.212Z,101287.53
2018-11-02T12:57:51.293Z,101292.55
2018-11-02T13:00:21.476Z,101292.19
2018-11-02T13:02:50.264Z,101296.89
2018-11-02T13:05:18.326Z,101297.59
2018-11-02T13:07:46.328Z,101299.99
2018-11-02T13:10:16.353Z,101296.94
2018-11-02T13:12:44.401Z,101301.62
2018-11-02T13:15:13.742Z,101292.45
2018-11-02T13:17:42.660Z,101306.73
2018-11-02T13:20:11.233Z,101311.33
2018-11-02T13:22:39.972Z,101315.27
2018-11-02T13:25:09.472Z,101317.77
2018-11-02T13:27:37.514Z,101318.06
2018-11-02T13:30:06.019Z,101322.53
2018-11-02T13:32:34.202Z,101325.84
2018-11-02T13:35:02.254Z,101322.46
2018-11-02T13:37:30.258Z,101318.42
2018-11-02T13:39:58.332Z,101317.10
2018-11-02T13:42:26.391Z,101325.14
2018-11-02T13:44:54.470Z,101324.16
2018-11-02T13:47:22.845Z,101331.17
2018-11-02T13:49:51.221Z,101331.14
2018-11-02T13:52:19.216Z,101325.95
2018-11-02T13:54:47.270Z,101326.86
2018-11-02T13:57:15.315Z,101327.80
2018-11-02T13:59:43.343Z,101341.65
2018-11-02T14:02:11.344Z,101350.19
2018-11-02T14:04:39.541Z,101350.86
2018-11-02T14:07:07.545Z,101356.02
2018-11-02T14:09:35.549Z,101356.55
2018-11-02T14:12:03.565Z,101365.35
2018-11-02T14:14:31.586Z,101359.52
2018-11-02T14:16:59.593Z,101362.48
2018-11-02T14:19:27.649Z,101366.20
2018-11-02T14:21:55.658Z,101369.89
2018-11-02T14:24:23.719Z,101378.41
2018-11-02T14:26:51.736Z,101385.25
2018-11-02T14:29:19.846Z,101394.37
2018-11-02T14:31:47.802Z,101398.29
2018-11-02T14:34:15.956Z,101408.06
2018-11-02T14:36:44.189Z,101415.05
2018-11-02T14:39:13.934Z,101423.37
2018-11-02T14:41:42.805Z,101428.82
2018-11-02T14:44:11.025Z,101432.44
2018-11-02T14:46:39.678Z,101439.37
2018-11-02T14:49:07.653Z,101440.70
2018-11-02T14:51:35.983Z,101450.00
2018-11-02T14:56:43.522Z,101457.48
2018-11-02T14:59:11.519Z,101458.17
2018-11-02T15:01:39.544Z,101465.45
2018-11-02T15:04:07.641Z,101472.12
2018-11-02T15:06:35.643Z,101472.12
2018-11-02T15:09:04.682Z,101477.44
2018-11-02T15:11:32.806Z,101485.17
2018-11-02T15:14:00.786Z,101486.23
2018-11-02T15:16:28.836Z,101482.64
2018-11-02T15:18:56.849Z,101494.77
2018-11-02T15:21:24.871Z,101505.48
2018-11-02T15:23:53.074Z,101509.75
2018-11-02T15:26:21.144Z,101520.44
2018-11-02T15:28:49.111Z,101517.02
2018-11-02T15:31:17.149Z,101519.17
2018-11-02T15:33:45.136Z,101529.09
2018-11-02T15:36:13.124Z,101531.34
2018-11-02T15:38:41.147Z,101537.73
2018-11-02T15:41:09.157Z,101537.45
2018-11-02T15:43:37.150Z,101546.88
2018-11-02T15:46:05.309Z,101548.69
2018-11-02T15:48:33.318Z,101545.90
2018-11-02T15:51:01.368Z,101549.83
2018-11-02T15:53:29.487Z,101546.61
2018-11-02T15:55:57.441Z,101545.78
2018-11-02T15:58:25.464Z,101550.44
2018-11-02T16:00:53.446Z,101555.53
2018-11-02T16:03:21.665Z,101558.78
2018-11-02T16:05:49.693Z,101559.12
2018-11-02T16:08:17.713Z,101549.87
2018-11-02T16:10:45.905Z,101548.73
2018-11-02T16:13:13.941Z,101550.09
2018-11-02T16:15:41.925Z,101541.10
2018-11-02T16:18:09.984Z,101545.37
2018-11-02T16:20:38.045Z,101546.96
2018-11-02T16:23:06.270Z,101541.32
2018-11-02T16:25:34.285Z,101545.56
2018-11-02T16:28:02.296Z,101542.69
2018-11-02T16:30:30.321Z,101537.16
2018-11-02T16:32:58.309Z,101547.06
2018-11-02T16:35:26.389Z,101553.45
2018-11-02T16:37:54.457Z,101555.55
2018-11-02T16:40:22.460Z,101557.91
2018-11-02T16:42:50.573Z,101562.14
2018-11-02T16:45:18.568Z,101565.03
2018-11-02T16:47:46.732Z,101564.61
2018-11-02T16:50:15.427Z,101560.28
2018-11-02T16:52:43.818Z,101565.66
2018-11-02T16:55:11.991Z,101571.50
2018-11-02T16:57:40.442Z,101572.51
2018-11-02T17:00:14.880Z,101563.66
2018-11-02T17:02:43.465Z,101576.84
2018-11-02T17:05:11.457Z,101577.42
2018-11-02T17:07:39.977Z,101572.30
2018-11-02T17:10:09.017Z,101578.95
2018-11-02T17:12:37.216Z,101587.84
2018-11-02T17:15:05.520Z,101590.20
2018-11-02T17:17:33.475Z,101597.73
2018-11-02T17:20:01.481Z,101601.57
2018-11-02T17:22:29.471Z,101601.98
2018-11-02T17:24:57.479Z,101602.59
2018-11-02T17:27:25.485Z,101608.43
2018-11-02T17:29:53.585Z,101611.25
2018-11-02T17:32:21.973Z,101612.67
2018-11-02T17:34:49.952Z,101622.53
2018-11-02T17:37:17.978Z,101629.00
2018-11-02T17:39:46.077Z,101639.28
2018-11-02T17:42:14.053Z,101636.08
2018-11-02T17:44:42.088Z,101642.69
2018-11-02T17:47:10.209Z,101642.86
2018-11-02T17:49:38.235Z,101648.43
2018-11-02T17:52:06.249Z,101649.38
2018-11-02T17:54:34.240Z,101659.17
2018-11-02T17:57:02.216Z,101655.11
2018-11-02T17:59:30.273Z,101656.76
2018-11-02T18:01:58.300Z,101651.78
2018-11-02T18:04:26.309Z,101652.37
2018-11-02T18:06:54.289Z,101644.61
2018-11-02T18:09:22.289Z,101652.34
2018-11-02T18:11:50.393Z,101655.95
2018-11-02T18:14:18.346Z,101661.23
2018-11-02T18:16:46.418Z,101669.08
2018-11-02T18:19:14.413Z,101668.05
2018-11-02T18:21:42.396Z,101670.05
2018-11-02T18:24:10.458Z,101677.44
2018-11-02T18:26:38.417Z,101682.13
2018-11-02T18:29:06.479Z,101685.89
2018-11-02T18:31:34.510Z,101695.28
2018-11-02T18:34:02.558Z,101704.96
2018-11-02T18:36:30.557Z,101706.36
2018-11-02T18:38:58.540Z,101709.71
2018-11-02T18:41:26.566Z,101706.09
2018-11-02T18:43:54.658Z,101716.96
2018-11-02T18:46:22.684Z,101722.08
2018-11-02T18:48:50.669Z,101723.00
2018-11-02T18:51:18.656Z,101734.70
2018-11-02T18:53:46.677Z,101745.79
2018-11-02T18:56:14.697Z,101742.20
2018-11-02T18:58:42.724Z,101748.81
2018-11-02T19:01:10.775Z,101749.30
2018-11-02T19:03:38.829Z,101759.34
2018-11-02T19:06:06.988Z,101764.55
2018-11-02T19:08:34.993Z,101766.17
2018-11-02T19:11:03.064Z,101766.17
2018-11-02T19:13:31.131Z,101774.30
2018-11-02T19:15:59.053Z,101774.26
2018-11-02T19:18:27.152Z,101777.36
2018-11-02T19:20:55.163Z,101770.01
2018-11-02T19:23:23.244Z,101771.11
2018-11-02T19:25:51.318Z,101779.74
2018-11-02T19:28:19.321Z,101779.36
2018-11-02T19:30:47.392Z,101786.69
2018-11-02T19:33:15.418Z,101800.00
2018-11-02T19:35:43.445Z,101803.01
2018-11-02T19:38:11.650Z,101800.97
2018-11-02T19:40:39.449Z,101805.47
2018-11-02T19:43:07.509Z,101799.66
2018-11-02T19:45:35.578Z,101809.64
2018-11-02T19:48:04.505Z,101802.03
2018-11-02T19:50:32.853Z,101803.91
2018-11-02T19:53:00.801Z,101807.39
2018-11-02T19:55:28.815Z,101805.80
2018-11-02T19:57:56.828Z,101808.69
2018-11-02T20:00:24.827Z,101802.72
2018-11-02T20:02:52.954Z,101807.06
2018-11-02T20:05:21.380Z,101822.69
2018-11-02T20:07:49.408Z,101817.91
2018-11-02T20:10:18.093Z,101821.66
2018-11-02T20:12:46.502Z,101821.77
2018-11-02T20:15:15.174Z,101819.55
2018-11-02T20:17:43.302Z,101813.67
2018-11-02T20:20:12.810Z,101820.30
2018-11-02T20:22:40.884Z,101820.96
2018-11-02T20:25:10.879Z,101826.62
2018-11-02T20:27:38.932Z,101836.66
2018-11-02T20:30:08.781Z,101840.06
2018-11-02T20:32:36.851Z,101839.59
2018-11-02T20:35:05.026Z,101838.08
2018-11-02T20:37:33.058Z,101840.60
2018-11-02T20:40:01.112Z,101846.99
2018-11-02T20:42:29.201Z,101848.51
2018-11-02T20:44:57.265Z,101848.23
2018-11-02T20:47:25.405Z,101845.14
2018-11-02T20:49:53.557Z,101848.32
2018-11-02T20:52:21.553Z,101846.34
2018-11-02T20:54:49.592Z,101849.83
2018-11-02T20:57:17.651Z,101853.42
2018-11-02T20:59:45.658Z,101852.27
2018-11-02T21:02:13.762Z,101861.10
2018-11-02T21:04:41.923Z,101864.48
2018-11-02T21:07:09.945Z,101869.86
2018-11-02T21:09:38.258Z,101876.52
2018-11-02T21:12:06.010Z,101880.63
2018-11-02T21:14:34.235Z,101886.91
2018-11-02T21:17:02.103Z,101885.70
2018-11-02T21:19:30.069Z,101894.11
2018-11-02T21:21:58.148Z,101893.36
2018-11-02T21:24:26.172Z,101901.91
2018-11-02T21:26:54.246Z,101902.48
2018-11-02T21:29:22.273Z,101898.92
2018-11-02T21:31:50.317Z,101904.90
2018-11-02T21:34:18.349Z,101902.62
2018-11-02T21:36:46.405Z,101903.30
2018-11-02T21:39:14.492Z,101897.50
2018-11-02T21:41:42.491Z,101908.46
2018-11-02T21:44:11.013Z,101905.41
2018-11-02T21:46:39.148Z,101908.32
2018-11-02T21:49:07.190Z,101905.80
2018-11-02T21:51:35.194Z,101904.87
2018-11-02T21:54:03.211Z,101905.58
2018-11-02T21:56:31.272Z,101903.73
2018-11-02T21:59:00.243Z,101908.64
2018-11-02T22:01:28.261Z,101910.48
2018-11-02T22:03:56.472Z,101903.98
2018-11-02T22:06:24.513Z,101905.51
2018-11-02T22:08:52.609Z,101901.66
2018-11-02T22:11:20.689Z,101902.16
2018-11-02T22:13:48.859Z,101901.84
2018-11-02T22:16:17.025Z,101909.62
2018-11-02T22:18:45.283Z,101904.97
2018-11-02T22:21:13.179Z,101909.45
2018-11-02T22:23:41.236Z,101914.35
2018-11-02T22:26:09.300Z,101909.53
2018-11-02T22:28:37.306Z,101907.92
2018-11-02T22:31:05.354Z,101909.98
2018-11-02T22:33:33.372Z,101917.85
2018-11-02T22:36:01.443Z,101912.16
2018-11-02T22:38:29.440Z,101920.88
2018-11-02T22:40:57.481Z,101907.59
2018-11-02T22:43:25.649Z,101910.55
2018-11-02T22:45:54.245Z,101905.30
2018-11-02T22:48:23.560Z,101907.17
2018-11-02T22:50:51.871Z,101905.66
2018-11-02T22:53:19.852Z,101904.29
2018-11-02T22:55:48.613Z,101912.21
2018-11-02T22:58:18.385Z,101906.44
2018-11-02T23:00:52.453Z,101905.95
2018-11-02T23:03:20.501Z,101909.86
2018-11-02T23:05:48.515Z,101906.78
2018-11-02T23:08:16.830Z,101913.50
2018-11-02T23:10:44.855Z,101914.66
2018-11-02T23:13:13.936Z,101916.47
2018-11-02T23:15:41.964Z,101920.74
2018-11-02T23:18:10.036Z,101923.95
2018-11-02T23:20:38.045Z,101927.07
2018-11-02T23:23:06.191Z,101921.94
2018-11-02T23:25:34.189Z,101924.06
2018-11-02T23:28:02.164Z,101918.69
2018-11-02T23:30:30.250Z,101924.14
2018-11-02T23:32:58.244Z,101936.75
2018-11-02T23:35:26.356Z,101935.73
2018-11-02T23:37:54.440Z,101943.50
2018-11-02T23:40:22.465Z,101947.95
2018-11-02T23:42:50.510Z,101942.15
2018-11-02T23:45:18.573Z,101941.30
2018-11-02T23:47:52.004Z,101945.70
2018-11-02T23:50:20.013Z,101946.37
2018-11-02T23:52:48.051Z,101949.31
2018-11-02T23:55:16.251Z,101948.00
2018-11-02T23:57:44.326Z,101939.13
